Orbital elements of COSMOS 970 DEB
| Launched | 20 December 1977 |
| Flight ended | – |
| Launch site | Tyuratam Missile and Space Center, Kazakhstan (Also known as Baikonur Cosmodrome) |
| Owner | Commonwealth of Independent States (former USSR) |
| NORAD ID | 64993 |
| Date fetched |
Epoch osculation |
Inc. [°] |
Ecc. | RA asc node [hr] |
Arg Peri. [°] |
Mean anom [°] |
Mean motion [rev/day] |
Abs. mag |
| Date fetched |
Epoch osculation |
Inc. [°] |
Ecc. | RA asc node [hr] |
Arg Peri. [°] |
Mean anom [°] |
Mean motion [rev/day] |
Abs. mag |
| 2026 May 03 17:57 | 2026 Apr 29 04:15:03 | 65.5968 | 0.01595 | 17.7925 | 249.7794 | 292.1866 | 13.72726 | – |
| 2026 May 02 17:57 | 2026 Apr 29 04:15:03 | 65.5968 | 0.01595 | 17.7925 | 249.7794 | 292.1866 | 13.72726 | – |
| 2026 May 01 17:56 | 2026 Apr 29 04:15:03 | 65.5968 | 0.01595 | 17.7925 | 249.7794 | 292.1866 | 13.72726 | – |
| 2026 Apr 30 17:56 | 2026 Apr 29 04:15:03 | 65.5968 | 0.01595 | 17.7925 | 249.7794 | 292.1866 | 13.72726 | – |
| 2026 Apr 29 17:57 | 2026 Apr 20 18:20:12 | 65.5959 | 0.01597 | 19.1863 | 253.2902 | 292.1866 | 13.72726 | – |
| 2026 Apr 28 17:56 | 2026 Apr 20 18:20:12 | 65.5959 | 0.01597 | 19.1863 | 253.2902 | 292.1866 | 13.72726 | – |
| 2026 Apr 27 17:58 | 2026 Apr 20 18:20:12 | 65.5959 | 0.01597 | 19.1863 | 253.2902 | 292.1866 | 13.72726 | – |
| 2026 Apr 26 17:58 | 2026 Apr 20 18:20:12 | 65.5959 | 0.01597 | 19.1863 | 253.2902 | 292.1866 | 13.72726 | – |
| 2026 Apr 25 17:58 | 2026 Apr 20 18:20:12 | 65.5959 | 0.01597 | 19.1863 | 253.2902 | 292.1866 | 13.72726 | – |
| 2026 Apr 24 17:59 | 2026 Apr 20 18:20:12 | 65.5959 | 0.01597 | 19.1863 | 253.2902 | 292.1866 | 13.72726 | – |
| 2026 Apr 23 17:57 | 2026 Apr 14 23:09:11 | 65.5968 | 0.01598 | 20.1471 | 255.7266 | 292.1866 | 13.72726 | – |
| 2026 Apr 22 17:57 | 2026 Apr 14 23:09:11 | 65.5968 | 0.01598 | 20.1471 | 255.7266 | 292.1866 | 13.72726 | – |
| 2026 Apr 21 17:57 | 2026 Apr 14 23:09:11 | 65.5968 | 0.01598 | 20.1471 | 255.7266 | 292.1866 | 13.72726 | – |
| 2026 Apr 20 17:57 | 2026 Apr 14 23:09:11 | 65.5968 | 0.01598 | 20.1471 | 255.7266 | 292.1866 | 13.72726 | – |
| 2026 Apr 19 17:58 | 2026 Apr 14 23:09:11 | 65.5968 | 0.01598 | 20.1471 | 255.7266 | 292.1866 | 13.72726 | – |
| 2026 Apr 18 17:56 | 2026 Apr 10 20:34:47 | 65.5973 | 0.01599 | 20.8275 | 257.4473 | 292.1866 | 13.72726 | – |
| 2026 Apr 16 17:57 | 2026 Apr 10 20:34:47 | 65.5973 | 0.01599 | 20.8275 | 257.4473 | 292.1866 | 13.72726 | – |
| 2026 Apr 14 17:57 | 2026 Apr 10 20:34:47 | 65.5973 | 0.01599 | 20.8275 | 257.4473 | 292.1866 | 13.72726 | – |
| 2026 Apr 13 17:57 | 2026 Apr 10 20:34:47 | 65.5973 | 0.01599 | 20.8275 | 257.4473 | 292.1866 | 13.72726 | – |
| 2026 Apr 12 17:57 | 2026 Apr 08 01:02:09 | 65.5979 | 0.01600 | 21.2937 | 258.6279 | 292.1866 | 13.72726 | – |
| 2026 Apr 11 17:57 | 2026 Apr 08 01:02:09 | 65.5979 | 0.01600 | 21.2937 | 258.6279 | 292.1866 | 13.72726 | – |
| 2026 Apr 10 17:58 | 2026 Apr 08 01:02:09 | 65.5979 | 0.01600 | 21.2937 | 258.6279 | 292.1866 | 13.72726 | – |
| 2026 Apr 09 18:01 | 2026 Apr 08 01:02:09 | 65.5979 | 0.01600 | 21.2937 | 258.6279 | 292.1866 | 13.72726 | – |
| 2026 Apr 08 17:57 | 2026 Apr 08 01:02:09 | 65.5979 | 0.01600 | 21.2937 | 258.6279 | 292.1866 | 13.72726 | – |
| 2026 Apr 07 17:57 | 2026 Apr 02 06:37:11 | 65.5989 | 0.01601 | 22.2491 | 261.0285 | 292.1866 | 13.72726 | – |
| 2026 Apr 06 17:57 | 2026 Apr 02 06:37:11 | 65.5989 | 0.01601 | 22.2491 | 261.0285 | 292.1866 | 13.72726 | – |